Time;durP1;ratioP1;P1;durP2;ratioP2;P2;SDS_P1;SDS_P2;PMS_P1;PMS_P2;Temp;Humidity;BMP_temperature;BMP_pressure;BME280_temperature;BME280_humidity;BME280_pressure;Samples;Min_cycle;Max_cycle;Signal;HPM_P1;HPM_P2
2023/07/12 00:04:38;;;;;;;10.80;3.30;;;;;;;19.23;59.86;100150.27;224310;1265;94245;-88
2023/07/12 00:09:38;;;;;;;9.40;3.50;;;;;;;19.18;59.54;100147.34;223591;1265;139248;-88
2023/07/12 00:14:39;;;;;;;8.90;3.50;;;;;;;19.14;59.40;100139.72;224201;1265;137847;-89
2023/07/12 00:19:39;;;;;;;7.50;3.10;;;;;;;19.12;59.28;100138.27;223707;1265;139330;-89
2023/07/12 00:24:40;;;;;;;9.20;3.40;;;;;;;19.10;59.26;100129.00;224180;1265;138042;-89
2023/07/12 00:29:40;;;;;;;7.20;3.00;;;;;;;19.08;58.98;100117.73;223598;1265;139167;-89
2023/07/12 00:34:40;;;;;;;8.20;3.50;;;;;;;19.05;59.25;100104.36;224388;1265;94323;-90
2023/07/12 00:39:41;;;;;;;7.10;3.20;;;;;;;19.03;59.31;100100.52;223652;1265;140340;-89
2023/07/12 00:44:49;;;;;;;8.20;3.60;;;;;;;18.99;59.45;100097.42;224188;1265;138584;-89
2023/07/12 00:49:51;;;;;;;7.80;3.60;;;;;;;18.95;59.80;100097.64;223659;1266;139950;-88
2023/07/12 00:54:56;;;;;;;9.50;3.40;;;;;;;18.91;59.69;100106.83;224234;1265;138136;-88
2023/07/12 01:00:01;;;;;;;6.90;3.60;;;;;;;18.87;60.03;100115.23;223549;1265;141223;-89
2023/07/12 01:05:01;;;;;;;10.30;4.10;;;;;;;18.83;59.88;100120.77;224285;1265;94704;-89
2023/07/12 01:10:02;;;;;;;9.60;4.00;;;;;;;18.78;60.20;100107.58;223605;1265;138936;-89
2023/07/12 01:15:04;;;;;;;8.60;3.80;;;;;;;18.76;60.16;100100.55;224311;1266;137998;-88
2023/07/12 01:20:06;;;;;;;7.30;3.40;;;;;;;18.73;59.83;100096.50;223588;1265;140620;-88
2023/07/12 01:25:07;;;;;;;11.40;4.50;;;;;;;18.73;59.78;100093.55;224117;1265;137728;-89
2023/07/12 01:30:08;;;;;;;10.80;3.90;;;;;;;18.74;59.75;100086.05;223722;1265;139350;-88
2023/07/12 01:35:08;;;;;;;9.50;3.80;;;;;;;18.76;59.49;100077.38;224277;1265;94274;-92
2023/07/12 01:40:10;;;;;;;8.00;3.40;;;;;;;18.77;59.72;100069.63;223544;1266;138686;-90
2023/07/12 01:45:10;;;;;;;8.20;3.40;;;;;;;18.76;59.79;100062.17;224181;1266;138120;-89
2023/07/12 01:50:11;;;;;;;9.90;3.20;;;;;;;18.74;59.93;100057.52;223677;1266;138782;-88
2023/07/12 01:55:11;;;;;;;10.20;3.30;;;;;;;18.70;60.07;100050.20;224089;1266;137666;-89
2023/07/12 02:00:13;;;;;;;7.10;3.50;;;;;;;18.64;60.28;100035.02;223624;1266;138923;-89
2023/07/12 02:05:15;;;;;;;6.40;3.20;;;;;;;18.59;60.52;100023.70;224331;1266;94663;-95
2023/07/12 02:10:18;;;;;;;7.00;3.40;;;;;;;18.54;60.74;100013.34;223538;1266;140732;-88
2023/07/12 02:15:19;;;;;;;10.20;4.20;;;;;;;18.49;60.82;99994.92;224113;1265;137591;-91
2023/07/12 02:20:20;;;;;;;7.10;3.40;;;;;;;18.43;60.90;99983.62;223616;1266;139063;-88
2023/07/12 02:25:21;;;;;;;8.90;4.50;;;;;;;18.39;60.88;99968.52;224137;1270;137651;-90
2023/07/12 02:30:26;;;;;;;7.60;3.60;;;;;;;18.38;61.13;99963.63;223554;1266;140326;-89
2023/07/12 02:35:29;;;;;;;9.10;4.00;;;;;;;18.35;60.99;99954.71;224196;1266;106031;-89
2023/07/12 02:40:31;;;;;;;8.90;4.20;;;;;;;18.36;61.16;99953.27;223680;1265;139103;-92
2023/07/12 02:45:32;;;;;;;8.90;4.10;;;;;;;18.35;61.17;99941.65;224166;1265;137350;-86
2023/07/12 02:50:33;;;;;;;9.50;4.30;;;;;;;18.36;61.23;99923.80;223573;1266;139100;-89
2023/07/12 02:55:35;;;;;;;10.40;4.10;;;;;;;18.38;61.41;99917.70;224098;1266;137398;-89
2023/07/12 03:00:36;;;;;;;9.60;4.50;;;;;;;18.40;61.35;99914.92;223781;1265;139576;-90
2023/07/12 03:05:38;;;;;;;8.60;3.40;;;;;;;18.41;61.42;99905.73;224424;1266;94254;-92
2023/07/12 03:10:38;;;;;;;9.20;3.90;;;;;;;18.43;61.30;99895.41;223528;1266;138429;-88
2023/07/12 03:15:39;;;;;;;9.30;4.30;;;;;;;18.46;61.36;99889.66;224165;1266;137614;-89
2023/07/12 03:20:39;;;;;;;6.80;3.80;;;;;;;18.50;61.45;99885.02;223674;1265;140022;-90
2023/07/12 03:25:44;;;;;;;9.10;3.90;;;;;;;18.54;61.60;99876.22;224087;1265;137548;-91
2023/07/12 03:30:57;;;;;;;7.60;4.20;;;;;;;18.58;61.62;99865.81;223676;1265;139014;-90
2023/07/12 03:35:59;;;;;;;8.30;3.90;;;;;;;18.64;61.93;99858.38;224078;1265;137639;-88
2023/07/12 03:41:06;;;;;;;9.90;4.10;;;;;;;18.71;61.73;99846.94;223658;1266;138630;-91
2023/07/12 03:52:04;;;;;;;9.50;3.80;;;;;;;18.91;61.74;99836.44;223520;1266;139262;-89
2023/07/12 03:57:10;;;;;;;9.80;3.90;;;;;;;19.03;61.66;99836.74;224151;1265;137620;-92
2023/07/12 04:02:10;;;;;;;9.40;3.80;;;;;;;19.19;61.67;99824.48;223495;1265;138954;-90
2023/07/12 04:07:12;;;;;;;12.20;4.60;;;;;;;19.34;61.64;99816.19;224204;1265;137706;-91
2023/07/12 04:12:16;;;;;;;7.20;3.50;;;;;;;19.51;61.35;99812.73;223771;1266;139323;-88
2023/07/12 04:17:17;;;;;;;11.30;4.90;;;;;;;19.67;61.08;99816.31;224245;1265;94222;-90
2023/07/12 04:22:17;;;;;;;10.00;4.70;;;;;;;19.81;60.63;99810.92;223528;1265;139011;-93
2023/07/12 04:27:18;;;;;;;8.60;4.50;;;;;;;19.96;60.32;99806.85;224123;1265;137756;-94
2023/07/12 04:32:19;;;;;;;11.20;4.10;;;;;;;20.09;59.78;99796.75;223678;1265;139108;-94
2023/07/12 04:37:19;;;;;;;10.20;4.30;;;;;;;20.17;59.43;99788.23;224204;1266;138113;-94
2023/07/12 04:42:20;;;;;;;11.10;4.60;;;;;;;20.21;59.40;99768.89;223652;1266;140422;-91
2023/07/12 04:47:21;;;;;;;8.20;3.80;;;;;;;20.26;59.38;99771.52;224294;1266;94339;-92
2023/07/12 04:52:21;;;;;;;9.00;4.20;;;;;;;20.30;59.19;99786.11;223542;1266;138493;-91
2023/07/12 04:57:22;;;;;;;14.10;4.80;;;;;;;20.36;59.00;99792.54;224290;1266;137336;-88
2023/07/12 05:02:22;;;;;;;9.90;4.40;;;;;;;20.41;59.00;99788.30;223726;1266;138966;-89
2023/07/12 05:07:23;;;;;;;9.30;4.40;;;;;;;20.46;58.96;99783.36;224133;1266;138103;-92
2023/07/12 05:12:23;;;;;;;11.40;5.10;;;;;;;20.49;58.87;99787.20;223600;1266;139878;-90
2023/07/12 05:17:25;;;;;;;9.60;4.60;;;;;;;20.54;58.86;99788.22;224233;1269;94349;-93
2023/07/12 05:22:25;;;;;;;13.90;4.30;;;;;;;20.61;58.82;99802.81;223642;1269;138872;-91
2023/07/12 05:27:26;;;;;;;11.50;4.30;;;;;;;20.68;58.32;99835.21;224146;1266;137742;-89
2023/07/12 05:32:28;;;;;;;9.40;4.40;;;;;;;20.79;58.05;99957.00;223699;1266;140179;-90
2023/07/12 05:37:28;;;;;;;11.50;4.50;;;;;;;20.84;57.94;99890.48;224184;1266;137425;-88
2023/07/12 05:42:29;;;;;;;12.20;4.60;;;;;;;20.84;57.94;99921.00;223602;1266;139364;-88
2023/07/12 05:47:29;;;;;;;12.40;4.40;;;;;;;20.86;57.96;99908.23;224319;1267;94269;-87
2023/07/12 05:52:35;;;;;;;9.20;4.20;;;;;;;20.89;57.99;99905.98;223565;1266;139016;-89
2023/07/12 05:57:36;;;;;;;10.40;4.50;;;;;;;20.90;58.12;99889.73;224131;1266;137440;-89
2023/07/12 06:02:38;;;;;;;10.10;4.30;;;;;;;20.90;58.14;99884.66;223586;1266;138882;-88
2023/07/12 06:07:38;;;;;;;15.50;4.70;;;;;;;20.94;58.17;99866.73;224198;1265;137681;-89
2023/07/12 06:12:45;;;;;;;10.80;4.00;;;;;;;20.96;58.33;99856.55;223521;1266;138792;-89
2023/07/12 06:17:46;;;;;;;13.90;3.80;;;;;;;20.97;59.38;99862.27;224261;1266;94402;-86
2023/07/12 06:22:46;;;;;;;14.80;4.60;;;;;;;20.92;60.61;99857.82;223592;1266;139375;-87
2023/07/12 06:27:47;;;;;;;8.70;4.00;;;;;;;20.84;61.84;99852.27;224209;1267;137876;-87
2023/07/12 06:32:47;;;;;;;15.30;4.80;;;;;;;20.72;65.95;99838.29;223580;1267;138143;-89
2023/07/12 06:43:46;;;;;;;11.80;5.20;;;;;;;20.23;72.52;99789.60;222960;1274;138895;-93
2023/07/12 06:48:46;;;;;;;11.50;5.00;;;;;;;20.18;74.39;99781.88;223508;1273;94415;-94
2023/07/12 06:53:47;;;;;;;11.60;5.40;;;;;;;20.12;75.93;99787.14;223408;1266;139545;-94
2023/07/12 06:58:48;;;;;;;12.80;5.70;;;;;;;19.91;76.99;99771.70;224082;1265;138434;-92
2023/07/12 07:03:53;;;;;;;12.70;5.60;;;;;;;19.78;78.05;99776.66;223618;1267;139403;-93
2023/07/12 07:08:53;;;;;;;12.20;5.20;;;;;;;19.72;79.47;99760.23;223484;1266;140040;-94
2023/07/12 07:13:54;;;;;;;12.00;5.80;;;;;;;19.67;81.36;99739.57;224084;1267;138305;-93
2023/07/12 07:18:54;;;;;;;14.30;5.50;;;;;;;19.71;80.17;99760.48;223546;1267;140184;-92
2023/07/12 07:23:55;;;;;;;16.00;6.70;;;;;;;19.79;80.44;99797.30;224231;1265;94268;-93
2023/07/12 07:28:56;;;;;;;15.20;6.20;;;;;;;19.82;80.98;99785.27;223634;1266;140605;-96
2023/07/12 07:33:56;;;;;;;14.50;5.80;;;;;;;19.87;79.80;99796.89;223991;1266;138308;-92
2023/07/12 07:39:14;;;;;;;13.20;5.20;;;;;;;19.89;79.21;99818.94;223638;1265;140403;-96
2023/07/12 07:44:24;;;;;;;22.60;6.40;;;;;;;19.87;77.79;99809.29;224194;1267;138720;-94
2023/07/12 07:49:31;;;;;;;11.70;5.40;;;;;;;19.84;78.01;99791.59;223670;1266;140004;-92
2023/07/12 07:54:31;;;;;;;12.60;5.50;;;;;;;19.81;77.90;99808.48;224070;1267;138514;-94
2023/07/12 07:59:35;;;;;;;12.40;5.70;;;;;;;19.75;78.32;99815.32;223711;1265;139386;-93
2023/07/12 08:04:39;;;;;;;12.80;5.80;;;;;;;19.70;78.46;99812.86;224164;1266;138138;-96
2023/07/12 08:09:39;;;;;;;15.70;6.40;;;;;;;19.67;79.61;99812.88;223450;1265;140989;-93
2023/07/12 08:14:40;;;;;;;12.70;5.50;;;;;;;19.59;81.74;99800.09;224202;1267;138622;-91
2023/07/12 08:19:40;;;;;;;11.40;5.70;;;;;;;19.57;82.45;99784.61;223676;1265;140203;-93
2023/07/12 08:24:41;;;;;;;12.60;6.20;;;;;;;19.55;83.78;99777.99;224245;1265;138308;-91
2023/07/12 08:29:43;;;;;;;11.40;7.70;;;;;;;19.57;85.26;99781.81;223785;1266;141748;-93
2023/07/12 08:34:43;;;;;;;14.00;7.00;;;;;;;19.61;86.91;99777.86;224259;1265;138119;-93
2023/07/12 08:39:44;;;;;;;15.90;8.60;;;;;;;19.66;88.12;99772.06;223607;1267;141142;-93
2023/07/12 08:44:45;;;;;;;14.10;7.40;;;;;;;19.71;90.08;99759.29;224153;1265;138532;-93
2023/07/12 08:49:46;;;;;;;13.20;7.40;;;;;;;19.71;91.44;99738.47;223615;1266;141896;-94
2023/07/12 08:54:48;;;;;;;14.50;9.10;;;;;;;19.75;92.86;99745.04;224221;1265;138444;-92
2023/07/12 08:59:59;;;;;;;15.30;8.60;;;;;;;19.76;93.85;99738.11;223704;1266;140766;-92
2023/07/12 09:05:11;;;;;;;20.80;9.20;;;;;;;19.82;94.53;99725.86;224220;1265;137939;-93
2023/07/12 09:10:11;;;;;;;20.10;10.20;;;;;;;19.87;96.00;99737.21;223548;1266;141179;-88
2023/07/12 09:15:12;;;;;;;18.30;11.00;;;;;;;19.87;97.78;99762.20;224246;1265;138515;-90
2023/07/12 09:20:24;;;;;;;18.10;10.10;;;;;;;19.85;98.62;99752.48;223604;1265;140710;-89
2023/07/12 09:25:34;;;;;;;14.60;8.40;;;;;;;19.92;99.81;99753.02;224155;1265;138841;-91
2023/07/12 09:30:34;;;;;;;15.80;7.70;;;;;;;20.01;100.00;99752.58;223592;1265;140652;-90
2023/07/12 09:35:40;;;;;;;15.70;9.60;;;;;;;20.14;99.95;99751.45;224364;1265;104693;-89
2023/07/12 09:40:43;;;;;;;;;;;;;;;20.28;100.00;99750.35;223394;1265;224227;-90
2023/07/12 09:46:00;;;;;;;20.10;11.70;;;;;;;20.35;100.00;99753.27;224250;1265;124790;-93
2023/07/12 09:51:25;;;;;;;21.50;11.40;;;;;;;20.51;100.00;99755.91;223630;1265;140163;-94
2023/07/12 09:56:34;;;;;;;22.80;11.40;;;;;;;20.76;100.00;99751.13;224073;1265;139193;-94
2023/07/12 10:01:59;;;;;;;21.70;11.70;;;;;;;21.04;100.00;99744.20;223658;1265;140156;-94
2023/07/12 10:07:18;;;;;;;19.40;11.30;;;;;;;21.34;100.00;99757.85;224125;1265;138745;-94
2023/07/12 10:12:29;;;;;;;19.30;11.10;;;;;;;21.58;100.00;99755.30;223624;1265;141885;-92
2023/07/12 10:17:34;;;;;;;21.60;11.50;;;;;;;21.78;100.00;99758.20;224349;1266;107373;-93
2023/07/12 10:22:38;;;;;;;21.50;10.70;;;;;;;22.09;100.00;99766.27;223593;1265;139583;-90
2023/07/12 10:27:46;;;;;;;17.30;11.40;;;;;;;22.69;100.00;99771.92;224242;1265;139010;-94
2023/07/12 10:32:52;;;;;;;17.10;10.20;;;;;;;23.38;99.91;99767.88;223563;1265;140283;-93
2023/07/12 10:38:25;;;;;;;;;;;;;;;23.91;97.45;99780.30;224139;1265;138879;-91
2023/07/12 10:43:36;;;;;;;14.50;8.60;;;;;;;24.35;94.83;99780.34;223572;1265;125205;-91
2023/07/12 10:48:42;;;;;;;14.00;8.90;;;;;;;24.95;93.20;99775.33;224121;1266;138385;-95
2023/07/12 10:53:52;;;;;;;15.10;9.20;;;;;;;25.45;90.06;99766.87;223694;1265;140393;-91
2023/07/12 10:58:58;;;;;;;14.10;9.90;;;;;;;26.03;87.04;99772.35;224081;1265;141579;-88
2023/07/12 11:04:07;;;;;;;17.00;9.80;;;;;;;26.33;85.68;99773.16;223917;1265;138221;-89
2023/07/12 11:09:09;;;;;;;16.50;10.30;;;;;;;26.64;83.14;99770.06;223511;1265;141232;-89
2023/07/12 11:14:25;;;;;;;16.10;10.00;;;;;;;26.83;82.84;99764.43;224154;1265;138741;-90
2023/07/12 11:19:34;;;;;;;;;;;;;;;27.19;81.94;99763.33;223577;1265;140696;-90
2023/07/12 11:24:56;;;;;;;14.00;9.10;;;;;;;27.48;80.93;99753.96;224273;1265;124633;-90
2023/07/12 11:30:12;;;;;;;13.60;10.00;;;;;;;27.82;79.80;99749.92;223602;1265;140002;-89
2023/07/12 11:35:19;;;;;;;15.90;9.80;;;;;;;28.18;78.30;99738.92;224186;1265;94310;-89
2023/07/12 11:40:29;;;;;;;15.30;10.00;;;;;;;28.38;76.87;99722.94;223654;1265;139899;-88
2023/07/12 11:45:33;;;;;;;13.00;7.50;;;;;;;28.42;75.84;99718.11;224096;1265;138564;-89
2023/07/12 11:50:34;;;;;;;12.50;8.00;;;;;;;28.52;75.01;99715.89;223660;1265;139626;-86
2023/07/12 11:55:35;;;;;;;10.80;6.60;;;;;;;28.54;73.40;99718.47;224140;1265;138348;-90
2023/07/12 12:00:40;;;;;;;10.90;6.50;;;;;;;28.66;73.05;99727.31;223642;1265;139446;-94
2023/07/12 12:05:43;;;;;;;12.90;6.60;;;;;;;28.69;71.70;99724.73;224264;1265;105360;-89
2023/07/12 12:10:46;;;;;;;12.80;6.70;;;;;;;28.55;69.34;99719.13;223730;1265;140789;-89
2023/07/12 12:15:49;;;;;;;13.90;6.90;;;;;;;28.16;68.94;99728.54;224218;1265;137814;-91
2023/07/12 12:20:57;;;;;;;16.50;8.20;;;;;;;28.01;69.45;99727.80;223665;1266;139636;-92
2023/07/12 12:26:02;;;;;;;11.10;7.30;;;;;;;27.88;70.06;99722.29;224109;1265;137713;-89
2023/07/12 12:31:15;;;;;;;11.30;6.70;;;;;;;27.93;70.51;99716.84;223662;1265;139227;-90
2023/07/12 12:36:24;;;;;;;11.30;7.20;;;;;;;28.16;69.81;99710.58;224265;1265;138230;-90
2023/07/12 12:41:59;;;;;;;11.00;7.70;;;;;;;28.29;69.54;99707.59;223593;1265;139657;-90
2023/07/12 12:47:01;;;;;;;13.00;7.90;;;;;;;28.34;68.98;99717.83;224241;1265;137630;-88
2023/07/12 12:52:17;;;;;;;14.20;7.50;;;;;;;28.49;68.84;99726.60;223671;1265;140805;-90
2023/07/12 12:57:18;;;;;;;12.70;7.20;;;;;;;28.67;69.21;99724.79;224190;1265;137720;-90
2023/07/12 13:02:19;;;;;;;13.70;7.80;;;;;;;28.85;68.84;99731.65;223576;1265;138224;-92
2023/07/12 13:07:27;;;;;;;13.70;7.40;;;;;;;29.01;69.19;99737.14;224273;1265;138098;-95
2023/07/12 13:12:28;;;;;;;13.60;8.30;;;;;;;29.43;69.21;99731.07;223620;1265;140600;-89
2023/07/12 13:17:30;;;;;;;11.70;7.90;;;;;;;29.83;67.82;99734.69;224286;1265;94216;-92
2023/07/12 13:22:30;;;;;;;14.40;8.00;;;;;;;30.27;64.78;99734.71;223823;1265;139700;-93
2023/07/12 13:27:33;;;;;;;13.60;8.00;;;;;;;30.33;61.02;99731.62;224182;1265;137789;-93
2023/07/12 13:32:34;;;;;;;15.00;8.30;;;;;;;30.28;60.02;99734.14;223601;1266;141691;-94
2023/07/12 13:37:38;;;;;;;13.50;7.90;;;;;;;30.28;60.01;99742.98;224252;1265;138311;-87
2023/07/12 13:42:41;;;;;;;12.40;8.00;;;;;;;30.26;60.33;99751.55;223639;1265;138812;-90
2023/07/12 13:47:43;;;;;;;11.50;7.30;;;;;;;30.18;59.76;99752.84;224429;1265;94282;-90
2023/07/12 13:52:44;;;;;;;11.10;7.30;;;;;;;30.07;58.44;99754.76;223589;1265;140933;-90
2023/07/12 13:57:46;;;;;;;11.20;7.30;;;;;;;30.11;57.87;99761.98;224273;1265;138063;-86
2023/07/12 14:02:52;;;;;;;12.30;7.20;;;;;;;30.12;57.35;99749.38;223663;1265;139689;-90
2023/07/12 14:07:54;;;;;;;11.70;7.30;;;;;;;30.13;57.20;99749.06;224128;1265;136761;-90
2023/07/12 14:12:55;;;;;;;12.20;6.90;;;;;;;30.12;57.05;99756.76;223654;1265;138676;-91
2023/07/12 14:17:55;;;;;;;11.80;6.40;;;;;;;30.10;57.22;99762.45;224252;1265;94271;-90
2023/07/12 14:22:58;;;;;;;9.80;6.70;;;;;;;30.06;57.40;99764.01;223703;1265;140568;-92
2023/07/12 14:28:00;;;;;;;11.80;6.90;;;;;;;29.96;56.00;99770.01;224189;1265;138121;-88
2023/07/12 14:33:01;;;;;;;13.60;6.80;;;;;;;29.81;56.58;99765.19;223775;1265;139951;-90
2023/07/12 14:38:01;;;;;;;10.60;6.10;;;;;;;29.85;55.83;99754.95;224193;1265;137828;-91
2023/07/12 14:43:03;;;;;;;9.60;5.80;;;;;;;29.82;55.35;99759.05;223762;1265;139273;-90
2023/07/12 14:48:11;;;;;;;9.10;5.80;;;;;;;29.80;55.18;99765.45;224326;1265;94321;-89
2023/07/12 14:53:14;;;;;;;10.90;5.30;;;;;;;29.87;54.84;99758.66;223696;1265;139701;-89
2023/07/12 14:58:16;;;;;;;7.70;5.00;;;;;;;29.90;53.72;99754.09;224367;1265;137960;-87
2023/07/12 15:03:20;;;;;;;12.10;5.50;;;;;;;30.01;53.72;99746.96;223667;1265;141054;-94
2023/07/12 15:08:29;;;;;;;7.80;4.80;;;;;;;30.13;52.20;99743.95;224123;1265;137931;-88
2023/07/12 15:13:31;;;;;;;11.80;5.20;;;;;;;30.20;50.80;99743.91;223608;1265;140351;-91
2023/07/12 15:18:31;;;;;;;9.40;4.50;;;;;;;30.29;49.06;99754.67;224248;1265;138019;-94
2023/07/12 15:23:37;;;;;;;;;;;;;;;30.33;49.09;99761.05;223764;1265;139127;-89
2023/07/12 15:28:38;;;;;;;8.20;4.00;;;;;;;30.22;49.23;99760.00;224260;1265;124166;-88
2023/07/12 15:33:39;;;;;;;9.00;3.90;;;;;;;30.24;47.90;99762.50;223831;1265;141033;-90
2023/07/12 15:38:44;;;;;;;8.20;3.20;;;;;;;30.16;47.42;99769.17;224294;1265;136676;-93
2023/07/12 15:43:54;;;;;;;6.50;3.30;;;;;;;30.12;47.49;99775.13;223652;1265;140684;-89
2023/07/12 15:48:56;;;;;;;7.60;3.00;;;;;;;30.13;46.03;99774.77;223579;1265;139758;-90
2023/07/12 15:53:56;;;;;;;4.50;2.40;;;;;;;30.06;44.29;99767.61;224304;1265;94357;-88
2023/07/12 15:58:57;;;;;;;16.60;4.50;;;;;;;29.89;45.72;99753.79;223710;1265;139369;-87
2023/07/12 16:03:58;;;;;;;5.50;3.00;;;;;;;29.74;46.31;99755.73;224164;1265;138621;-87
2023/07/12 16:08:59;;;;;;;7.20;3.00;;;;;;;29.65;47.53;99760.02;223681;1265;140886;-88
2023/07/12 16:14:09;;;;;;;5.20;2.70;;;;;;;29.52;47.76;99763.73;224302;1265;137809;-87
2023/07/12 16:19:11;;;;;;;7.70;2.90;;;;;;;29.37;47.45;99764.17;223554;1265;139405;-91
2023/07/12 16:24:12;;;;;;;5.90;2.20;;;;;;;29.25;46.86;99764.27;224357;1265;94242;-88
2023/07/12 16:29:13;;;;;;;4.50;2.20;;;;;;;29.15;46.54;99760.30;223745;1265;140940;-89
2023/07/12 16:34:19;;;;;;;4.80;2.10;;;;;;;29.00;46.00;99764.80;224200;1266;137869;-87
2023/07/12 16:39:20;;;;;;;3.90;2.10;;;;;;;28.80;45.68;99769.20;223592;1265;139286;-85
2023/07/12 16:44:24;;;;;;;4.30;2.00;;;;;;;28.61;45.77;99769.17;224271;1265;137514;-89
2023/07/12 16:49:24;;;;;;;4.40;2.10;;;;;;;28.51;45.57;99772.11;223705;1265;138371;-87
2023/07/12 16:54:26;;;;;;;5.30;2.00;;;;;;;28.41;46.29;99783.16;224117;1265;137652;-87
2023/07/12 16:59:28;;;;;;;4.60;2.10;;;;;;;28.25;46.46;99783.18;223804;1266;141646;-85
2023/07/12 17:04:28;;;;;;;6.20;2.80;;;;;;;28.11;46.44;99784.77;224126;1265;137906;-86
2023/07/12 17:09:30;;;;;;;3.30;1.80;;;;;;;27.97;46.96;99789.98;223697;1265;141260;-86
2023/07/12 17:14:30;;;;;;;4.80;1.90;;;;;;;27.89;47.05;99800.24;224152;1265;137575;-86
2023/07/12 17:19:31;;;;;;;4.10;1.90;;;;;;;27.77;47.49;99806.36;223632;1265;139833;-88
2023/07/12 17:24:32;;;;;;;3.20;1.60;;;;;;;27.64;47.17;99813.39;224339;1265;137593;-87
2023/07/12 17:29:32;;;;;;;3.80;1.70;;;;;;;27.55;46.66;99811.46;223912;1265;139969;-87
2023/07/12 17:34:34;;;;;;;3.50;1.70;;;;;;;27.50;46.72;99814.31;224272;1265;137589;-86
2023/07/12 17:39:34;;;;;;;2.90;1.40;;;;;;;27.42;46.82;99819.45;223728;1265;139801;-89
2023/07/12 17:44:35;;;;;;;4.00;1.50;;;;;;;27.35;45.79;99824.72;224101;1265;137901;-86
2023/07/12 17:49:35;;;;;;;3.70;1.50;;;;;;;27.29;45.82;99833.02;223725;1265;139801;-88
2023/07/12 17:54:35;;;;;;;6.00;1.50;;;;;;;27.23;46.71;99840.36;224207;1265;138340;-88
2023/07/12 17:59:36;;;;;;;2.80;1.40;;;;;;;27.13;47.60;99849.17;223777;1265;139605;-91
2023/07/12 18:04:37;;;;;;;3.90;1.80;;;;;;;27.02;47.28;99850.02;224202;1265;139245;-89
2023/07/12 18:09:39;;;;;;;3.50;1.60;;;;;;;26.90;47.86;99853.17;223709;1266;140186;-85
2023/07/12 18:14:40;;;;;;;2.80;1.40;;;;;;;26.80;48.21;99867.40;224168;1265;137893;-86
2023/07/12 18:19:41;;;;;;;2.00;1.20;;;;;;;26.68;48.35;99876.95;223633;1266;141266;-85
2023/07/12 18:24:42;;;;;;;2.40;1.10;;;;;;;26.55;48.18;99883.91;224233;1266;138405;-87
2023/07/12 18:29:43;;;;;;;3.40;1.60;;;;;;;26.40;48.21;99893.95;223812;1265;140928;-86
2023/07/12 18:34:47;;;;;;;4.10;1.60;;;;;;;26.27;48.62;99898.98;224307;1265;138018;-86
2023/07/12 18:39:52;;;;;;;3.50;1.30;;;;;;;26.13;49.22;99897.28;223663;1265;140362;-86
2023/07/12 18:44:54;;;;;;;2.10;1.10;;;;;;;26.00;49.73;99904.61;224120;1265;137977;-86
2023/07/12 18:49:55;;;;;;;2.60;1.20;;;;;;;25.83;50.11;99912.46;223673;1265;140190;-85
2023/07/12 18:54:56;;;;;;;3.30;1.50;;;;;;;25.62;49.89;99918.50;224180;1266;137846;-87
2023/07/12 18:59:56;;;;;;;4.10;1.60;;;;;;;25.47;50.22;99920.94;223819;1265;140266;-86
2023/07/12 19:04:56;;;;;;;3.20;1.10;;;;;;;25.31;50.64;99923.11;224238;1265;137403;-87
2023/07/12 19:09:57;;;;;;;3.70;1.20;;;;;;;25.18;51.35;99930.15;223783;1265;140286;-85
2023/07/12 19:15:01;;;;;;;3.80;1.60;;;;;;;25.04;51.94;99933.61;224231;1265;137657;-87
2023/07/12 19:20:01;;;;;;;2.10;1.10;;;;;;;24.85;52.65;99938.10;223712;1265;140091;-87
2023/07/12 19:25:02;;;;;;;3.70;1.60;;;;;;;24.67;53.22;99943.92;224186;1265;138768;-88
2023/07/12 19:30:03;;;;;;;6.40;1.40;;;;;;;24.49;53.45;99952.64;223777;1265;142376;-87
2023/07/12 19:35:04;;;;;;;2.90;1.40;;;;;;;24.29;54.05;99963.77;224187;1266;137821;-86
2023/07/12 19:40:06;;;;;;;3.20;1.40;;;;;;;24.15;54.37;99964.08;223687;1265;139422;-85
2023/07/12 19:45:13;;;;;;;3.50;1.70;;;;;;;23.99;55.11;99972.27;224294;1265;137612;-86
2023/07/12 19:50:15;;;;;;;2.80;1.30;;;;;;;23.84;55.56;99972.00;223657;1265;139828;-87
2023/07/12 19:55:27;;;;;;;3.80;1.70;;;;;;;23.67;55.91;99978.76;224201;1265;139774;-87
2023/07/12 20:00:28;;;;;;;2.70;1.40;;;;;;;23.46;56.61;99981.23;223632;1265;142120;-87
2023/07/12 20:05:28;;;;;;;3.10;1.30;;;;;;;23.27;57.14;99980.73;224352;1265;94289;-87
2023/07/12 20:10:28;;;;;;;4.50;1.30;;;;;;;23.10;57.74;99986.12;223682;1265;142404;-86
2023/07/12 20:15:29;;;;;;;5.00;2.00;;;;;;;22.92;58.40;99994.17;224235;1265;138037;-86
2023/07/12 20:20:32;;;;;;;9.40;3.10;;;;;;;22.74;58.85;100002.79;223758;1265;139870;-87
2023/07/12 20:25:32;;;;;;;4.60;1.60;;;;;;;22.57;59.24;100008.77;224196;1266;138857;-86
2023/07/12 20:30:33;;;;;;;4.40;1.50;;;;;;;22.41;59.56;100002.87;223667;1266;139550;-87
2023/07/12 20:35:33;;;;;;;3.60;1.60;;;;;;;22.23;59.72;100000.85;224274;1265;94273;-86
2023/07/12 20:40:35;;;;;;;4.80;1.70;;;;;;;22.05;60.19;100002.52;223707;1266;142137;-86
2023/07/12 20:45:36;;;;;;;6.40;1.50;;;;;;;21.86;60.77;100005.07;224202;1266;137882;-87
2023/07/12 20:50:36;;;;;;;5.20;1.70;;;;;;;21.66;61.87;100009.56;223722;1265;141366;-86
2023/07/12 20:55:36;;;;;;;4.50;1.70;;;;;;;21.43;62.70;100014.88;224252;1266;139395;-87
2023/07/12 21:00:37;;;;;;;3.70;1.30;;;;;;;21.24;63.49;100020.45;223742;1269;143061;-86
2023/07/12 21:05:37;;;;;;;4.30;1.50;;;;;;;21.10;63.84;100018.52;224360;1265;94271;-87
2023/07/12 21:10:38;;;;;;;3.80;1.50;;;;;;;20.98;64.15;100023.03;223708;1266;141612;-87
2023/07/12 21:15:41;;;;;;;3.40;1.30;;;;;;;20.87;64.22;100030.86;224204;1266;138335;-86
2023/07/12 21:20:43;;;;;;;3.50;1.50;;;;;;;20.76;64.30;100034.41;223649;1266;140921;-86
2023/07/12 21:25:47;;;;;;;4.10;1.40;;;;;;;20.66;64.64;100032.06;224220;1265;137853;-87
2023/07/12 21:30:49;;;;;;;5.70;1.40;;;;;;;20.58;64.63;100028.65;223552;1265;141373;-88
2023/07/12 21:35:54;;;;;;;4.40;1.80;;;;;;;20.48;64.88;100028.55;224301;1266;94191;-87
2023/07/12 21:41:14;;;;;;;3.50;1.50;;;;;;;20.34;65.17;100024.75;223411;1266;317623;-86
2023/07/12 21:46:14;;;;;;;2.20;1.30;;;;;;;20.18;65.75;100036.55;224189;1266;138022;-87
2023/07/12 21:51:15;;;;;;;5.70;1.70;;;;;;;20.02;66.09;100041.30;223708;1266;140752;-88
2023/07/12 21:56:15;;;;;;;3.10;1.70;;;;;;;19.90;66.30;100042.10;224234;1265;138075;-87
2023/07/12 22:01:17;;;;;;;2.90;1.20;;;;;;;19.78;67.15;100050.63;223701;1265;142142;-87
2023/07/12 22:06:20;;;;;;;3.70;1.50;;;;;;;19.67;67.80;100062.56;224169;1265;139942;-88
2023/07/12 22:11:23;;;;;;;3.80;1.30;;;;;;;19.56;67.92;100061.30;223670;1266;141635;-87
2023/07/12 22:16:27;;;;;;;3.10;1.30;;;;;;;19.48;67.68;100059.10;224139;1270;138049;-88
2023/07/12 22:21:28;;;;;;;4.60;1.50;;;;;;;19.43;67.90;100065.40;223622;1266;139620;-87
2023/07/12 22:26:29;;;;;;;4.40;1.50;;;;;;;19.33;68.75;100071.04;224160;1266;138617;-89
2023/07/12 22:31:30;;;;;;;4.50;1.30;;;;;;;19.19;69.11;100070.40;223715;1265;142182;-89
2023/07/12 22:36:30;;;;;;;2.80;1.40;;;;;;;19.07;69.43;100076.25;224265;1266;138073;-88
2023/07/12 22:41:30;;;;;;;3.70;1.50;;;;;;;18.95;70.47;100073.33;223748;1265;140018;-88
2023/07/12 22:46:31;;;;;;;4.50;1.80;;;;;;;18.83;70.96;100072.78;224298;1265;137639;-89
2023/07/12 22:51:32;;;;;;;3.70;1.70;;;;;;;18.76;71.27;100075.45;223689;1269;141221;-88
2023/07/12 22:56:32;;;;;;;5.50;1.70;;;;;;;18.65;71.99;100079.35;224157;1265;138654;-89
2023/07/12 23:01:33;;;;;;;4.00;1.80;;;;;;;18.57;71.82;100081.01;223673;1265;142576;-89
2023/07/12 23:06:33;;;;;;;5.30;1.60;;;;;;;18.50;72.68;100078.65;224202;1266;138874;-88
2023/07/12 23:11:34;;;;;;;4.20;1.70;;;;;;;18.37;73.28;100069.36;223751;1265;143691;-89
2023/07/12 23:16:34;;;;;;;5.10;2.00;;;;;;;18.24;73.50;100064.90;224171;1265;138679;-89